Time;durP1;ratioP1;P1;durP2;ratioP2;P2;SDS_P1;SDS_P2;PMS_P1;PMS_P2;Temp;Humidity;BMP_temperature;BMP_pressure;BME280_temperature;BME280_humidity;BME280_pressure;Samples;Min_cycle;Max_cycle;Signal;HPM_P1;HPM_P2
2022/04/28 00:02:04;;;;;;;;;;;;;;;6.39;71.20;102169.16;4990296;28;20085;-83
2022/04/28 00:04:31;;;;;;;12.55;5.50;;;;;;;6.39;70.89;102170.00;5003218;28;19932;-84
2022/04/28 00:06:58;;;;;;;12.07;6.43;;;;;;;6.38;71.02;102167.38;5002029;28;20053;-83
2022/04/28 00:09:27;;;;;;;10.05;5.07;;;;;;;6.35;70.62;102167.25;4988684;28;20064;-84
2022/04/28 00:12:04;;;;;;;24.67;11.35;;;;;;;6.32;71.38;102174.97;4989652;28;20061;-84
2022/04/28 00:14:37;;;;;;;12.80;5.38;;;;;;;6.29;71.69;102175.75;4988267;28;20042;-84
2022/04/28 00:17:16;;;;;;;12.85;6.13;;;;;;;6.25;71.75;102173.88;4992810;28;20164;-84
2022/04/28 00:19:50;;;;;;;11.82;7.00;;;;;;;6.19;72.16;102176.25;4989277;28;20118;-84
2022/04/28 00:22:23;;;;;;;11.68;6.80;;;;;;;6.17;72.37;102175.34;5001728;28;20288;-84
2022/04/28 00:24:56;;;;;;;10.15;5.05;;;;;;;6.15;72.38;102177.00;5003236;28;20062;-84
2022/04/28 00:27:26;;;;;;;10.77;6.27;;;;;;;6.11;72.69;102173.41;4985956;28;20046;-84
2022/04/28 00:29:55;;;;;;;11.48;5.68;;;;;;;6.08;72.44;102178.50;5003656;28;20343;-84
2022/04/28 00:32:24;;;;;;;11.20;6.13;;;;;;;6.06;72.97;102182.75;5001833;28;20042;-84
2022/04/28 00:34:51;;;;;;;7.55;4.68;;;;;;;6.02;73.29;102181.75;5002626;28;20050;-84
2022/04/28 00:37:24;;;;;;;10.43;5.38;;;;;;;5.96;73.68;102185.00;4985766;28;20053;-84
2022/04/28 00:39:51;;;;;;;10.90;6.25;;;;;;;5.94;73.74;102180.59;5002755;28;20038;-84
2022/04/28 00:42:29;;;;;;;11.40;4.40;;;;;;;5.89;73.67;102174.34;4997543;28;20025;-83
2022/04/28 00:44:58;;;;;;;8.95;5.65;;;;;;;5.89;74.49;102180.44;5004000;28;20038;-84
2022/04/28 00:50:38;;;;;;;10.02;5.88;;;;;;;5.90;74.45;102183.91;5007647;28;20193;-84
2022/04/28 00:53:02;;;;;;;5.50;5.00;;;;;;;5.86;74.54;102179.44;4986055;28;20331;-84
2022/04/28 00:55:33;;;;;;;11.82;5.00;;;;;;;5.83;74.86;102175.03;4989386;28;20114;-83
2022/04/28 00:58:01;;;;;;;9.68;5.82;;;;;;;5.82;75.22;102178.44;5002833;28;20179;-84
2022/04/28 01:00:30;;;;;;;8.43;5.60;;;;;;;5.80;75.41;102181.00;4988524;28;20053;-84
2022/04/28 01:03:03;;;;;;;7.40;5.38;;;;;;;5.78;75.50;102182.66;4988975;28;20841;-84
2022/04/28 01:05:36;;;;;;;7.35;5.32;;;;;;;5.76;75.50;102183.44;5002596;28;20038;-84
2022/04/28 01:08:03;;;;;;;6.85;5.97;;;;;;;5.76;76.18;102191.22;5002740;28;20077;-84
2022/04/28 01:10:29;;;;;;;11.43;6.25;;;;;;;5.75;75.92;102184.25;5004027;28;20044;-83
2022/04/28 01:13:01;;;;;;;11.70;5.18;;;;;;;5.72;76.07;102186.75;4987028;28;20041;-84
2022/04/28 01:15:31;;;;;;;7.47;5.85;;;;;;;5.69;76.32;102181.47;5009305;28;20076;-84
2022/04/28 01:18:01;;;;;;;12.82;6.18;;;;;;;5.65;76.73;102182.19;4989960;28;20104;-83
2022/04/28 01:20:30;;;;;;;16.23;6.18;;;;;;;5.61;77.00;102184.66;5001841;28;20085;-83
2022/04/28 01:22:57;;;;;;;10.68;6.03;;;;;;;5.59;77.02;102181.13;4984772;28;20045;-84
2022/04/28 01:25:24;;;;;;;8.60;5.47;;;;;;;5.58;76.88;102184.56;5003017;28;20045;-83
2022/04/28 01:28:00;;;;;;;10.10;5.22;;;;;;;5.55;76.97;102188.75;5003421;28;20046;-83
2022/04/28 01:30:36;;;;;;;7.90;4.53;;;;;;;5.50;77.17;102190.28;5004383;28;20140;-83
2022/04/28 01:33:03;;;;;;;12.73;5.10;;;;;;;5.47;77.58;102188.47;5018823;28;20474;-83
2022/04/28 01:35:36;;;;;;;9.90;6.20;;;;;;;5.44;77.94;102191.81;5001814;28;20045;-83
2022/04/28 01:38:03;;;;;;;6.43;4.90;;;;;;;5.39;78.04;102195.97;5002662;28;20045;-84
2022/04/28 01:40:33;;;;;;;10.90;5.80;;;;;;;5.35;78.14;102195.81;4991932;28;20054;-83
2022/04/28 01:43:05;;;;;;;12.13;4.80;;;;;;;5.31;78.67;102189.59;5022260;28;20068;-83
2022/04/28 01:45:32;;;;;;;8.95;5.45;;;;;;;5.28;78.82;102192.97;5004527;28;20038;-84
2022/04/28 01:47:58;;;;;;;10.75;5.50;;;;;;;5.26;78.84;102199.81;4987565;28;20092;-83
2022/04/28 01:50:25;;;;;;;12.63;5.35;;;;;;;5.22;79.04;102192.75;5035667;28;20103;-84
2022/04/28 01:55:37;;;;;;;;;;;;;;;5.13;80.22;102195.00;4995376;28;20048;-84
2022/04/28 01:58:04;;;;;;;8.35;5.85;;;;;;;5.10;80.01;102194.88;5006132;28;19925;-83
2022/04/28 02:00:32;;;;;;;13.27;5.97;;;;;;;5.09;80.24;102199.16;5006099;28;20057;-83
2022/04/28 02:02:59;;;;;;;12.13;6.55;;;;;;;5.06;80.44;102196.47;4992200;28;20057;-83
2022/04/28 02:05:26;;;;;;;10.63;5.63;;;;;;;5.06;80.49;102190.38;5005349;28;20337;-83
2022/04/28 02:07:53;;;;;;;13.65;6.18;;;;;;;5.04;80.60;102192.03;5032701;28;20077;-83
2022/04/28 02:10:24;;;;;;;10.25;5.82;;;;;;;5.01;80.85;102191.94;5035339;28;20080;-84
2022/04/28 02:12:55;;;;;;;10.15;6.45;;;;;;;4.95;80.76;102189.97;4987530;28;20022;-83
2022/04/28 02:15:22;;;;;;;8.85;6.05;;;;;;;4.90;81.16;102192.41;5009798;28;20049;-83
2022/04/28 02:17:49;;;;;;;13.50;6.43;;;;;;;4.88;81.52;102199.22;5023092;28;20258;-83
2022/04/28 02:20:19;;;;;;;9.82;6.13;;;;;;;4.83;81.77;102192.09;4987724;28;20050;-83
2022/04/28 02:22:47;;;;;;;9.85;5.28;;;;;;;4.77;82.04;102197.91;5001702;28;20117;-83
2022/04/28 02:25:14;;;;;;;8.80;6.88;;;;;;;4.71;82.02;102190.78;5019176;28;20042;-84
2022/04/28 02:27:44;;;;;;;10.25;6.72;;;;;;;4.68;82.60;102192.34;5008033;28;20265;-84
2022/04/28 02:30:11;;;;;;;15.43;6.65;;;;;;;4.64;83.13;102192.25;4991989;28;20064;-83
2022/04/28 02:35:22;;;;;;;9.30;5.95;;;;;;;4.56;83.36;102196.25;5005358;28;20052;-84
2022/04/28 02:37:49;;;;;;;11.60;6.65;;;;;;;4.52;83.30;102204.69;5002908;28;20066;-83
2022/04/28 02:40:17;;;;;;;11.57;6.88;;;;;;;4.49;83.99;102203.72;5019277;28;20049;-84
2022/04/28 02:42:43;;;;;;;10.65;6.80;;;;;;;4.46;84.37;102202.75;4984652;28;20053;-83
2022/04/28 02:45:10;;;;;;;9.93;6.78;;;;;;;4.43;83.72;102199.13;5000904;28;20057;-83
2022/04/28 02:47:37;;;;;;;11.10;6.82;;;;;;;4.38;84.73;102201.56;5002177;28;20049;-83
2022/04/28 02:50:05;;;;;;;12.63;6.15;;;;;;;4.35;84.41;102203.13;5018408;28;20318;-83
2022/04/28 02:52:32;;;;;;;17.73;7.10;;;;;;;4.30;84.91;102200.31;5023212;28;20041;-83
2022/04/28 02:55:04;;;;;;;8.95;5.97;;;;;;;4.27;84.86;102201.09;5002315;28;20253;-83
2022/04/28 02:57:37;;;;;;;11.27;6.40;;;;;;;4.27;85.36;102197.63;4991476;28;20247;-83
2022/04/28 03:00:14;;;;;;;11.00;6.53;;;;;;;4.27;85.53;102202.81;4986332;28;20047;-83
2022/04/28 03:02:41;;;;;;;12.68;6.78;;;;;;;4.27;85.78;102201.09;5001656;28;20586;-83
2022/04/28 03:05:09;;;;;;;11.77;6.75;;;;;;;4.26;85.89;102196.75;5004056;28;20114;-83
2022/04/28 03:10:53;;;;;;;13.13;7.20;;;;;;;4.22;85.90;102205.19;5013674;28;20118;-83
2022/04/28 03:13:25;;;;;;;12.52;6.82;;;;;;;4.16;85.79;102199.78;4983710;28;20040;-83
2022/04/28 03:15:51;;;;;;;10.13;7.10;;;;;;;4.12;86.83;102201.34;5007174;28;20073;-83
2022/04/28 03:18:21;;;;;;;9.40;5.82;;;;;;;4.12;86.76;102203.06;5001263;28;20050;-83
2022/04/28 03:20:48;;;;;;;11.50;7.05;;;;;;;4.11;86.56;102199.56;5003330;28;20069;-83
2022/04/28 03:23:20;;;;;;;12.25;7.65;;;;;;;4.10;87.05;102200.38;5001155;28;20037;-83
2022/04/28 03:25:49;;;;;;;16.02;7.28;;;;;;;4.09;86.76;102197.72;5006853;28;20049;-83
2022/04/28 03:28:17;;;;;;;11.77;5.90;;;;;;;4.08;87.14;102196.84;4999090;28;20054;-83
2022/04/28 03:30:46;;;;;;;13.20;6.00;;;;;;;4.08;87.56;102196.84;4986794;28;20046;-84
2022/04/28 03:33:17;;;;;;;10.23;6.57;;;;;;;4.08;88.62;102201.13;4979879;28;20053;-83
2022/04/28 03:35:47;;;;;;;13.75;6.30;;;;;;;4.10;88.21;102202.09;4998430;28;20065;-83
2022/04/28 03:38:14;;;;;;;11.68;6.82;;;;;;;4.08;87.99;102209.81;4999791;28;20048;-83
2022/04/28 03:40:42;;;;;;;12.38;7.30;;;;;;;4.07;87.92;102214.94;4998002;28;20080;-84
2022/04/28 03:43:09;;;;;;;11.80;6.65;;;;;;;4.05;87.80;102212.25;5015930;28;20042;-83
2022/04/28 03:45:38;;;;;;;14.85;8.38;;;;;;;4.04;88.16;102210.50;5030584;28;20323;-83
2022/04/28 03:48:08;;;;;;;11.25;6.15;;;;;;;4.03;88.13;102210.41;5001527;28;20180;-83
2022/04/28 03:50:38;;;;;;;8.38;5.88;;;;;;;4.03;88.30;102206.13;5016842;28;20044;-83
2022/04/28 03:53:07;;;;;;;13.55;6.22;;;;;;;4.04;87.93;102207.00;4999307;28;20311;-83
2022/04/28 03:55:50;;;;;;;10.13;6.55;;;;;;;4.04;88.44;102212.19;5028662;28;20041;-84
2022/04/28 03:58:25;;;;;;;12.98;6.40;;;;;;;4.02;88.38;102208.66;4999989;28;20053;-83
2022/04/28 04:00:57;;;;;;;10.63;6.25;;;;;;;3.98;87.71;102211.09;4992807;28;20026;-84
2022/04/28 04:03:24;;;;;;;16.13;7.30;;;;;;;3.95;88.38;102213.56;4985193;28;20034;-83
2022/04/28 04:05:52;;;;;;;13.35;8.10;;;;;;;3.93;88.85;102215.19;4992747;28;20049;-83
2022/04/28 04:08:19;;;;;;;16.73;6.85;;;;;;;3.92;89.00;102217.72;5015691;28;20034;-84
2022/04/28 04:10:49;;;;;;;13.77;8.60;;;;;;;3.93;88.82;102215.19;5011351;28;20046;-83
2022/04/28 04:13:24;;;;;;;11.93;7.55;;;;;;;3.93;89.08;102214.34;5002691;28;20037;-84
2022/04/28 04:16:06;;;;;;;10.32;6.82;;;;;;;3.93;89.37;102216.91;5001847;28;20042;-83
2022/04/28 04:18:39;;;;;;;14.10;6.65;;;;;;;3.95;89.22;102216.16;5002362;28;20041;-83
2022/04/28 04:21:07;;;;;;;12.13;7.57;;;;;;;3.96;89.38;102222.22;4994794;28;20086;-83
2022/04/28 04:23:40;;;;;;;17.00;7.65;;;;;;;3.97;89.08;102230.06;5006677;28;20049;-82
2022/04/28 04:26:18;;;;;;;12.90;7.05;;;;;;;3.97;89.14;102224.00;4988933;28;20104;-83
2022/04/28 04:28:50;;;;;;;12.38;6.78;;;;;;;3.98;88.79;102228.38;5014719;28;20053;-83
2022/04/28 04:34:16;;;;;;;15.77;6.95;;;;;;;4.00;88.83;102231.91;4985492;28;20038;-83
2022/04/28 04:36:46;;;;;;;12.52;8.32;;;;;;;4.02;88.98;102225.09;5001963;28;20034;-82
2022/04/28 04:39:13;;;;;;;15.00;8.02;;;;;;;4.07;89.30;102225.31;5026229;28;20026;-83
2022/04/28 04:41:40;;;;;;;19.98;8.48;;;;;;;4.11;88.65;102229.78;5005173;28;20054;-83
2022/04/28 04:44:13;;;;;;;13.93;8.57;;;;;;;4.14;88.96;102235.09;4993254;28;20054;-83
2022/04/28 04:46:41;;;;;;;15.80;8.85;;;;;;;4.22;89.12;102238.00;5023154;28;20050;-83
2022/04/28 04:49:25;;;;;;;17.08;8.95;;;;;;;4.29;88.06;102233.16;4993637;28;20038;-83
2022/04/28 04:52:02;;;;;;;15.82;8.75;;;;;;;4.33;87.78;102244.56;5008076;28;20057;-83
2022/04/28 04:54:37;;;;;;;18.67;9.73;;;;;;;4.40;87.92;102250.88;4990078;28;20056;-83
2022/04/28 04:57:05;;;;;;;20.27;9.63;;;;;;;4.46;87.87;102243.38;5020947;28;20054;-83
2022/04/28 04:59:33;;;;;;;16.50;8.95;;;;;;;4.49;87.30;102238.28;5023239;28;20117;-83
2022/04/28 05:02:01;;;;;;;21.05;9.85;;;;;;;4.50;87.02;102241.75;5003379;28;20045;-83
2022/04/28 05:04:41;;;;;;;20.80;9.27;;;;;;;4.52;87.32;102243.59;5022011;28;20042;-83
2022/04/28 05:07:11;;;;;;;26.50;10.50;;;;;;;4.55;87.39;102248.94;4994529;28;20069;-84
2022/04/28 05:09:42;;;;;;;38.22;10.70;;;;;;;4.59;86.87;102256.00;5005993;28;20088;-83
2022/04/28 05:12:17;;;;;;;16.45;9.30;;;;;;;4.64;86.88;102259.69;5001454;28;20482;-83
2022/04/28 05:15:09;;;;;;;27.40;9.77;;;;;;;4.69;86.57;102262.44;4986273;28;20050;-83
2022/04/28 05:17:41;;;;;;;32.33;10.43;;;;;;;4.73;86.17;102259.19;4998555;28;20036;-84
2022/04/28 05:20:15;;;;;;;19.35;9.02;;;;;;;4.78;85.97;102259.34;5009024;28;20106;-83
2022/04/28 05:22:42;;;;;;;26.17;8.40;;;;;;;4.81;86.01;102262.09;5020180;23;20443;-87
2022/04/28 05:25:09;;;;;;;21.15;9.55;;;;;;;4.85;85.91;102265.69;4992095;28;20154;-86
2022/04/28 05:27:38;;;;;;;18.63;9.27;;;;;;;4.89;85.94;102262.38;4979735;28;20061;-86
2022/04/28 05:30:09;;;;;;;17.33;7.85;;;;;;;4.93;85.72;102261.69;4975656;28;20077;-84
2022/04/28 05:32:36;;;;;;;17.15;8.52;;;;;;;4.96;85.74;102265.28;4982963;28;20057;-86
2022/04/28 05:35:19;;;;;;;18.70;8.05;;;;;;;5.02;84.87;102272.44;5005611;28;20049;-86
2022/04/28 05:37:49;;;;;;;16.80;8.30;;;;;;;5.07;85.03;102272.63;4974790;28;20081;-87
2022/04/28 05:40:17;;;;;;;18.23;10.57;;;;;;;5.16;85.09;102274.69;5003165;28;20054;-84
2022/04/28 05:45:46;;;;;;;15.13;8.70;;;;;;;5.28;83.56;102270.00;4993558;28;20034;-84
2022/04/28 05:48:21;;;;;;;17.13;6.83;;;;;;;5.34;83.13;102277.13;4988789;28;20076;-86
2022/04/28 05:50:48;;;;;;;17.52;9.18;;;;;;;5.39;82.79;102286.00;5005630;28;20328;-86
2022/04/28 05:53:15;;;;;;;16.85;7.40;;;;;;;5.45;82.33;102283.63;4974536;28;20100;-85
2022/04/28 05:55:43;;;;;;;13.65;7.13;;;;;;;5.51;82.19;102289.03;4996916;28;20396;-87
2022/04/28 05:58:10;;;;;;;18.17;9.63;;;;;;;5.58;82.13;102283.25;4992689;28;20053;-86
2022/04/28 06:00:37;;;;;;;19.55;10.98;;;;;;;5.70;82.05;102279.38;4980326;28;20124;-85
2022/04/28 06:03:04;;;;;;;16.10;8.50;;;;;;;5.75;80.95;102290.78;4981253;28;20061;-87
2022/04/28 06:05:31;;;;;;;13.43;8.20;;;;;;;5.80;80.43;102292.75;5013357;28;20042;-84
2022/04/28 06:08:03;;;;;;;15.45;6.82;;;;;;;5.86;80.34;102297.28;4970818;28;20054;-85
2022/04/28 06:10:58;;;;;;;16.58;7.65;;;;;;;5.95;79.45;102295.00;4999586;28;20050;-86
2022/04/28 06:13:29;;;;;;;15.05;7.20;;;;;;;6.04;78.83;102296.22;4991587;28;20050;-85
2022/04/28 06:15:56;;;;;;;16.08;8.65;;;;;;;6.09;78.81;102299.88;4971535;28;20069;-84
2022/04/28 06:18:24;;;;;;;15.43;9.43;;;;;;;6.14;78.43;102300.94;5014723;28;20045;-84
2022/04/28 06:23:57;;;;;;;14.77;6.45;;;;;;;6.25;77.49;102307.38;4976111;28;20175;-85
2022/04/28 06:26:24;;;;;;;15.23;7.60;;;;;;;6.29;77.27;102308.38;4984656;28;20463;-87
2022/04/28 06:31:35;;;;;;;;;;;;;;;6.36;77.78;102310.38;4992641;28;20615;-86
2022/04/28 06:34:02;;;;;;;12.85;7.55;;;;;;;6.43;77.21;102311.47;4998223;28;19929;-87
2022/04/28 06:36:28;;;;;;;15.98;8.18;;;;;;;6.53;77.21;102315.25;4983652;28;20042;-87
2022/04/28 06:38:55;;;;;;;11.85;8.10;;;;;;;6.61;76.84;102309.50;4979490;28;20053;-86
2022/04/28 06:41:25;;;;;;;15.90;8.48;;;;;;;6.74;76.15;102312.50;4994018;28;20053;-86
2022/04/28 06:43:59;;;;;;;13.27;7.03;;;;;;;6.88;75.75;102313.88;4957697;28;20053;-86
2022/04/28 06:46:25;;;;;;;14.93;7.18;;;;;;;7.03;74.54;102312.59;4962647;28;20058;-86
2022/04/28 06:48:52;;;;;;;18.15;7.90;;;;;;;7.18;74.29;102309.59;4996302;28;20050;-87
2022/04/28 06:51:19;;;;;;;16.67;8.25;;;;;;;7.37;73.44;102313.69;4982471;28;20081;-86
2022/04/28 06:53:47;;;;;;;9.63;5.38;;;;;;;7.58;71.19;102316.03;4979023;28;20050;-86
2022/04/28 06:56:15;;;;;;;12.32;5.30;;;;;;;7.88;70.57;102310.84;4961133;28;20093;-88
2022/04/28 06:58:42;;;;;;;8.65;5.13;;;;;;;8.28;69.20;102305.88;4964870;28;20548;-87
2022/04/28 07:01:09;;;;;;;10.70;4.32;;;;;;;8.84;67.37;102305.63;4974355;28;20053;-86
2022/04/28 07:06:24;;;;;;;10.82;3.35;;;;;;;9.97;62.93;102302.88;4973996;28;20149;-87
2022/04/28 07:08:52;;;;;;;13.35;5.82;;;;;;;10.40;60.82;102309.00;4977062;28;20064;-88
2022/04/28 07:11:21;;;;;;;9.32;6.05;;;;;;;10.91;60.34;102309.88;4990108;28;20054;-86
2022/04/28 07:16:57;;;;;;;6.43;4.50;;;;;;;11.68;56.38;102312.72;4981567;28;20069;-88
2022/04/28 07:19:23;;;;;;;11.63;5.20;;;;;;;11.91;56.04;102313.03;4975319;28;20042;-86
2022/04/28 07:21:51;;;;;;;7.93;3.55;;;;;;;12.34;54.32;102310.00;4959223;28;20056;-86
2022/04/28 07:24:29;;;;;;;;;;;;;;;;;;;;;
2022/04/28 07:26:57;;;;;;;10.75;2.72;;;;;;;13.09;50.79;102308.94;4994852;28;20083;-87
2022/04/28 07:29:26;;;;;;;8.15;3.40;;;;;;;13.08;49.65;102317.69;4993732;28;20145;-87
2022/04/28 07:31:54;;;;;;;8.65;2.88;;;;;;;13.24;50.70;102318.66;4988853;28;20412;-88
2022/04/28 07:34:23;;;;;;;8.00;3.00;;;;;;;13.60;48.68;102311.91;4976048;28;20065;-87
2022/04/28 07:39:37;;;;;;;5.45;2.63;;;;;;;14.20;47.13;102314.75;4979835;28;20068;-87
2022/04/28 07:42:08;;;;;;;5.90;2.33;;;;;;;14.46;46.30;102321.84;4993989;28;20052;-86
2022/04/28 07:44:36;;;;;;;5.60;2.40;;;;;;;14.86;45.87;102319.28;4998279;28;20076;-88
2022/04/28 07:47:03;;;;;;;7.97;2.42;;;;;;;15.24;44.62;102319.22;4992082;28;20189;-86
2022/04/28 07:49:30;;;;;;;6.95;2.78;;;;;;;15.68;44.28;102323.50;4970103;28;20050;-88
2022/04/28 07:51:57;;;;;;;11.77;3.60;;;;;;;16.12;43.10;102318.94;4994181;28;20096;-88
2022/04/28 07:54:24;;;;;;;11.02;3.38;;;;;;;16.43;42.56;102311.72;4971370;28;20045;-87
2022/04/28 07:56:51;;;;;;;5.78;3.55;;;;;;;16.68;40.88;102322.97;5013908;28;20053;-88
2022/04/28 07:59:18;;;;;;;5.95;2.58;;;;;;;16.82;41.18;102317.59;5001354;28;20045;-87
2022/04/28 08:01:44;;;;;;;7.72;2.78;;;;;;;17.24;40.70;102324.31;4989002;28;20077;-88
2022/04/28 08:04:16;;;;;;;7.47;3.50;;;;;;;17.57;38.61;102312.44;4975506;28;20144;-88
2022/04/28 08:06:42;;;;;;;8.40;3.05;;;;;;;17.50;38.72;102324.03;5004902;28;20046;-87
2022/04/28 08:09:10;;;;;;;8.60;3.45;;;;;;;17.62;38.26;102323.00;5000614;28;20073;-88
2022/04/28 08:11:39;;;;;;;6.47;3.38;;;;;;;17.73;38.43;102317.56;4984048;28;20091;-88
2022/04/28 08:14:06;;;;;;;8.93;3.40;;;;;;;18.12;37.90;102326.81;4980058;28;20054;-89
2022/04/28 08:16:33;;;;;;;7.50;3.67;;;;;;;18.64;36.94;102322.50;4982365;28;20856;-89
2022/04/28 08:19:02;;;;;;;5.95;4.28;;;;;;;18.65;36.32;102323.38;4994490;28;20058;-86
2022/04/28 08:21:30;;;;;;;7.43;3.38;;;;;;;18.71;35.75;102328.59;4996186;28;20074;-86
2022/04/28 08:23:57;;;;;;;10.20;4.15;;;;;;;18.71;35.70;102339.19;4998442;28;20115;-86
2022/04/28 08:26:25;;;;;;;6.82;3.83;;;;;;;18.75;35.71;102330.28;4986617;28;20057;-87
2022/04/28 08:28:52;;;;;;;8.70;4.03;;;;;;;19.12;34.83;102339.41;5002324;28;20038;-85
2022/04/28 08:31:21;;;;;;;6.45;3.28;;;;;;;19.48;34.61;102331.69;5026902;28;20058;-89
2022/04/28 08:34:01;;;;;;;6.75;3.13;;;;;;;19.83;33.31;102327.47;4993228;28;20049;-86
2022/04/28 08:36:28;;;;;;;7.15;3.00;;;;;;;19.92;33.95;102339.66;4982531;28;20057;-87
2022/04/28 08:38:58;;;;;;;7.55;3.58;;;;;;;20.15;33.25;102329.44;4985235;28;20125;-86
2022/04/28 08:41:37;;;;;;;6.70;3.83;;;;;;;20.60;31.96;102335.50;5014307;28;20097;-86
2022/04/28 08:44:07;;;;;;;10.32;3.40;;;;;;;20.83;32.10;102332.28;4987188;28;20584;-87
2022/04/28 08:46:53;;;;;;;5.45;3.42;;;;;;;21.03;31.43;102331.78;4981972;28;20054;-88
2022/04/28 08:49:23;;;;;;;7.82;3.92;;;;;;;20.84;31.61;102339.34;4998064;28;20046;-86
2022/04/28 08:52:00;;;;;;;5.53;3.67;;;;;;;20.94;31.62;102340.00;5011408;28;20072;-88
2022/04/28 08:54:32;;;;;;;5.45;3.97;;;;;;;21.05;31.47;102337.06;4981188;28;20050;-87
2022/04/28 08:57:03;;;;;;;10.90;4.38;;;;;;;21.45;31.38;102335.97;4996776;28;20050;-88
2022/04/28 08:59:32;;;;;;;10.35;3.97;;;;;;;21.81;30.41;102338.53;5011991;28;20050;-88
2022/04/28 09:01:59;;;;;;;6.88;3.85;;;;;;;21.91;30.54;102345.31;4989168;28;20479;-86
2022/04/28 09:04:27;;;;;;;12.98;4.07;;;;;;;22.15;30.33;102345.53;4985186;28;20119;-86
2022/04/28 09:07:04;;;;;;;7.65;3.80;;;;;;;22.71;29.84;102341.09;4985815;28;20089;-89
2022/04/28 09:09:41;;;;;;;8.40;3.42;;;;;;;23.16;29.17;102343.16;4992159;28;20042;-88
2022/04/28 09:12:11;;;;;;;7.00;3.75;;;;;;;23.31;27.91;102336.44;5006854;28;20057;-89
2022/04/28 09:14:46;;;;;;;5.45;3.80;;;;;;;22.96;28.83;102350.03;4991204;28;20591;-88
2022/04/28 09:17:12;;;;;;;;;;;;;;;22.81;28.03;102350.56;4990226;28;20066;-86
2022/04/28 09:19:41;;;;;;;10.25;4.10;;;;;;;23.16;28.55;102351.19;4991924;28;20379;-88
2022/04/28 09:22:13;;;;;;;4.85;3.67;;;;;;;23.52;27.84;102356.16;5002933;28;20049;-87
2022/04/28 09:24:45;;;;;;;7.57;4.05;;;;;;;23.84;27.58;102345.19;4997854;28;20158;-88
2022/04/28 09:27:11;;;;;;;9.95;4.18;;;;;;;24.34;26.51;102341.47;5004820;28;20049;-88
2022/04/28 09:29:40;;;;;;;4.60;3.83;;;;;;;24.58;26.46;102345.81;5003391;28;20057;-87
2022/04/28 09:32:16;;;;;;;7.82;4.05;;;;;;;24.76;25.77;102333.50;5010699;28;20106;-85
2022/04/28 09:34:50;;;;;;;4.32;3.58;;;;;;;25.14;26.05;102342.66;4999024;28;20053;-87
2022/04/28 09:37:26;;;;;;;5.35;3.78;;;;;;;25.65;24.63;102329.69;5011482;28;20045;-88
2022/04/28 09:42:42;;;;;;;6.97;3.85;;;;;;;25.84;24.93;102330.56;5001560;28;20117;-88
2022/04/28 09:45:12;;;;;;;5.07;4.57;;;;;;;25.77;24.69;102321.06;5000123;28;20165;-87
2022/04/28 09:47:39;;;;;;;6.15;4.15;;;;;;;25.87;25.26;102333.09;4982354;28;20571;-88
2022/04/28 09:50:27;;;;;;;6.15;4.10;;;;;;;26.39;23.70;102327.06;4995203;28;20050;-88
2022/04/28 09:52:58;;;;;;;7.80;4.63;;;;;;;26.14;24.13;102327.41;4976105;28;20049;-90
2022/04/28 09:55:28;;;;;;;8.15;4.05;;;;;;;26.23;24.36;102329.63;4983406;28;20848;-89
2022/04/28 09:57:57;;;;;;;5.63;4.40;;;;;;;26.74;23.83;102319.06;4991463;28;20045;-87
2022/04/28 10:00:28;;;;;;;6.95;4.43;;;;;;;27.03;23.62;102327.44;4996229;28;20050;-87
2022/04/28 10:02:58;;;;;;;8.20;4.68;;;;;;;26.74;23.68;102324.44;4999082;28;20088;-85
2022/04/28 10:05:30;;;;;;;15.20;5.85;;;;;;;26.98;23.52;102323.28;4999019;28;20121;-87
2022/04/28 10:08:00;;;;;;;17.95;5.82;;;;;;;27.38;22.98;102319.34;4974435;28;20495;-88
2022/04/28 10:10:29;;;;;;;12.82;5.13;;;;;;;27.50;22.75;102316.97;4993815;28;20046;-87
2022/04/28 10:13:01;;;;;;;9.55;5.25;;;;;;;27.83;22.24;102318.75;4973330;28;20511;-90
2022/04/28 10:15:37;;;;;;;11.98;5.43;;;;;;;28.14;22.61;102314.34;4994823;28;20053;-87
2022/04/28 10:18:11;;;;;;;14.23;6.03;;;;;;;28.38;22.14;102312.03;5014572;28;20049;-87
2022/04/28 10:20:47;;;;;;;6.00;5.30;;;;;;;28.75;21.33;102311.72;5015279;28;20045;-88
2022/04/28 10:23:17;;;;;;;9.38;4.57;;;;;;;29.03;21.69;102308.22;4975493;28;20669;-86
2022/04/28 10:34:18;;;;;;;6.65;5.32;;;;;;;27.67;22.02;102297.22;5006212;28;20034;-87
2022/04/28 10:37:09;;;;;;;8.88;5.18;;;;;;;28.18;21.35;102306.00;5014620;28;20049;-86
2022/04/28 10:39:41;;;;;;;5.80;4.25;;;;;;;28.74;21.49;102301.94;5012059;28;20034;-86
2022/04/28 10:42:14;;;;;;;9.07;5.38;;;;;;;29.48;20.81;102295.56;4984954;28;20056;-87
2022/04/28 10:44:54;;;;;;;5.85;4.53;;;;;;;29.45;20.74;102302.97;5013370;28;20046;-86
2022/04/28 10:47:32;;;;;;;6.85;5.30;;;;;;;29.15;20.89;102301.22;4979206;28;20046;-86
2022/04/28 10:49:59;;;;;;;8.90;5.78;;;;;;;29.25;20.81;102304.22;4979675;28;20129;-87
2022/04/28 10:52:27;;;;;;;7.93;5.40;;;;;;;29.06;21.05;102297.28;4960893;28;20133;-87
2022/04/28 10:54:56;;;;;;;6.63;6.03;;;;;;;28.80;20.86;102302.41;4992979;28;20439;-87
2022/04/28 10:57:43;;;;;;;7.97;5.97;;;;;;;28.70;20.06;102296.69;4957849;28;20045;-86
2022/04/28 11:00:36;;;;;;;8.75;5.53;;;;;;;28.80;19.67;102296.13;4995850;28;20647;-86
2022/04/28 11:03:10;;;;;;;8.88;6.35;;;;;;;28.54;20.77;102295.88;4983685;28;20101;-85
2022/04/28 11:08:26;;;;;;;7.20;6.38;;;;;;;29.51;19.23;102295.34;4978453;28;20050;-87
2022/04/28 11:11:04;;;;;;;6.38;5.57;;;;;;;28.98;19.82;102294.16;4996806;28;20140;-88
2022/04/28 11:13:34;;;;;;;7.63;5.88;;;;;;;28.52;20.77;102290.53;5012959;28;20050;-85
2022/04/28 11:16:02;;;;;;;7.55;5.45;;;;;;;29.31;20.02;102290.38;4996272;28;20469;-87
2022/04/28 11:18:29;;;;;;;8.70;5.20;;;;;;;29.86;19.39;102291.38;4979902;28;20877;-86
2022/04/28 11:21:01;;;;;;;6.43;5.35;;;;;;;30.06;18.95;102295.47;4988946;28;20138;-86
2022/04/28 11:23:41;;;;;;;10.00;6.10;;;;;;;30.05;18.64;102284.78;4987665;28;20084;-85
2022/04/28 11:29:10;;;;;;;8.50;5.72;;;;;;;29.64;19.56;102279.25;5007027;28;20060;-87
2022/04/28 11:31:53;;;;;;;6.65;4.93;;;;;;;29.89;19.57;102283.09;4979580;28;20050;-86
2022/04/28 11:34:21;;;;;;;10.00;6.15;;;;;;;29.73;18.94;102279.66;4999473;28;20050;-88
2022/04/28 11:36:48;;;;;;;6.90;4.97;;;;;;;29.21;19.96;102287.34;4979613;28;20049;-87
2022/04/28 11:39:43;;;;;;;8.90;5.72;;;;;;;29.72;19.31;102275.22;4994305;28;20124;-85
2022/04/28 11:42:16;;;;;;;5.88;5.07;;;;;;;30.06;19.19;102273.03;4989460;28;20864;-88
2022/04/28 11:50:37;;;;;;;5.65;5.07;;;;;;;29.35;19.75;102267.66;4993827;28;20042;-87
2022/04/28 11:53:12;;;;;;;7.35;5.63;;;;;;;28.84;20.62;102271.63;4994007;28;20048;-86
2022/04/28 11:55:40;;;;;;;6.20;5.40;;;;;;;29.58;19.63;102265.28;4994747;28;20046;-86
2022/04/28 11:58:10;;;;;;;6.00;5.22;;;;;;;30.00;18.95;102269.75;4978181;28;20138;-85
2022/04/28 12:00:48;;;;;;;7.88;5.30;;;;;;;30.33;18.31;102260.34;4993592;28;20049;-85
2022/04/28 12:03:27;;;;;;;7.43;5.45;;;;;;;30.45;18.49;102269.44;5007784;28;20733;-86
2022/04/28 12:05:56;;;;;;;8.68;5.70;;;;;;;30.98;18.03;102277.56;4993646;28;20054;-88
2022/04/28 12:08:25;;;;;;;5.10;4.60;;;;;;;31.27;18.13;102271.09;4972108;28;20220;-87
2022/04/28 12:19:19;;;;;;;7.63;4.60;;;;;;;31.45;17.60;102266.19;5007749;28;20037;-86
2022/04/28 12:21:51;;;;;;;5.65;5.00;;;;;;;31.31;17.98;102259.91;4986143;28;20056;-87
2022/04/28 12:24:20;;;;;;;4.55;3.90;;;;;;;31.80;17.40;102262.78;4979362;28;20180;-86
2022/04/28 12:26:51;;;;;;;6.35;5.13;;;;;;;32.12;17.44;102256.75;5003321;28;20167;-85
2022/04/28 12:29:21;;;;;;;8.10;4.63;;;;;;;31.97;16.99;102258.81;4981696;28;20051;-86
2022/04/28 12:31:56;;;;;;;7.75;4.82;;;;;;;32.21;16.78;102264.22;5013302;28;20061;-87
2022/04/28 12:34:27;;;;;;;7.13;5.75;;;;;;;32.14;17.49;102263.78;4980003;28;20053;-86
2022/04/28 12:37:00;;;;;;;6.53;4.65;;;;;;;32.54;17.35;102259.91;4993586;28;20057;-86
2022/04/28 12:39:28;;;;;;;6.20;4.97;;;;;;;32.95;17.00;102255.81;4974357;28;20050;-88
2022/04/28 12:41:55;;;;;;;11.02;5.35;;;;;;;33.04;16.83;102262.38;4991931;28;20061;-86
2022/04/28 12:44:24;;;;;;;7.40;4.72;;;;;;;33.24;16.86;102262.63;4976010;28;20137;-85
2022/04/28 12:46:55;;;;;;;6.93;5.18;;;;;;;32.95;16.95;102257.69;4992366;28;20050;-87